createdAt,value
2023-01-08T00:00:58.690Z,6.32
2023-01-08T00:03:26.076Z,6.03
2023-01-08T00:05:59.609Z,5.57
2023-01-08T00:08:26.801Z,6.78
2023-01-08T00:10:56.985Z,5.22
2023-01-08T00:13:30.587Z,6.75
2023-01-08T00:15:57.821Z,6.43
2023-01-08T00:18:33.703Z,6.70
2023-01-08T00:21:01.361Z,6.60
2023-01-08T00:23:28.621Z,6.53
2023-01-08T00:26:02.640Z,7.22
2023-01-08T00:28:29.920Z,7.30
2023-01-08T00:31:03.982Z,6.40
2023-01-08T00:33:31.724Z,7.68
2023-01-08T00:35:58.858Z,7.35
2023-01-08T00:38:33.710Z,7.50
2023-01-08T00:41:00.953Z,6.43
2023-01-08T00:43:34.719Z,6.57
2023-01-08T00:46:01.971Z,6.70
2023-01-08T00:48:29.216Z,6.07
2023-01-08T00:51:03.616Z,6.15
2023-01-08T00:53:46.559Z,7.32
2023-01-08T00:56:20.644Z,7.13
2023-01-08T00:58:54.581Z,6.70
2023-01-08T01:01:21.925Z,7.55
2023-01-08T01:03:49.208Z,7.53
2023-01-08T01:06:22.616Z,7.35
2023-01-08T01:08:49.715Z,7.50
2023-01-08T01:11:27.763Z,8.23
2023-01-08T01:13:56.020Z,7.63
2023-01-08T01:16:23.271Z,8.32
2023-01-08T01:18:58.724Z,7.68
2023-01-08T01:21:27.343Z,7.70
2023-01-08T01:24:02.678Z,8.20
2023-01-08T01:26:29.872Z,8.45
2023-01-08T01:28:58.118Z,8.65
2023-01-08T01:31:32.609Z,7.72
2023-01-08T01:34:06.719Z,8.52
2023-01-08T01:36:40.858Z,7.18
2023-01-08T01:39:08.164Z,7.80
2023-01-08T01:41:48.804Z,4.38
2023-01-08T01:44:35.846Z,8.60
2023-01-08T01:47:11.688Z,8.05
2023-01-08T01:49:39.492Z,8.73
2023-01-08T01:52:21.713Z,9.10
2023-01-08T01:54:55.803Z,9.40
2023-01-08T01:57:29.740Z,9.27
2023-01-08T01:59:58.141Z,9.55
2023-01-08T02:02:25.435Z,10.45
2023-01-08T02:04:59.729Z,9.93
2023-01-08T02:07:31.730Z,10.93
2023-01-08T02:10:19.635Z,10.93
2023-01-08T02:12:51.955Z,11.30
2023-01-08T02:15:30.649Z,12.75
2023-01-08T02:18:01.607Z,11.55
2023-01-08T02:20:38.648Z,11.68
2023-01-08T02:23:27.863Z,12.18
2023-01-08T02:26:19.771Z,13.50
2023-01-08T02:28:50.029Z,12.73
2023-01-08T02:31:18.313Z,14.27
2023-01-08T02:33:51.630Z,13.13
2023-01-08T02:36:37.007Z,14.85
2023-01-08T02:39:15.763Z,14.73
2023-01-08T02:41:53.855Z,14.75
2023-01-08T02:44:40.649Z,14.65
2023-01-08T02:47:11.568Z,15.30
2023-01-08T02:49:46.629Z,14.65
2023-01-08T02:52:21.629Z,14.35
2023-01-08T02:55:02.741Z,14.20
2023-01-08T02:57:30.939Z,15.57
2023-01-08T02:59:58.721Z,14.90
2023-01-08T03:02:36.683Z,14.20
2023-01-08T03:05:08.168Z,15.10
2023-01-08T03:07:41.679Z,13.35
2023-01-08T03:10:09.026Z,14.52
2023-01-08T03:12:51.724Z,13.48
2023-01-08T03:15:23.360Z,15.05
2023-01-08T03:17:58.891Z,15.23
2023-01-08T03:20:26.218Z,14.23
2023-01-08T03:22:56.465Z,14.05
2023-01-08T03:25:31.674Z,14.77
2023-01-08T03:28:01.187Z,14.13
2023-01-08T03:30:43.723Z,14.10
2023-01-08T03:33:12.628Z,14.15
2023-01-08T03:35:48.686Z,14.95
2023-01-08T03:38:23.347Z,14.43
2023-01-08T03:40:59.674Z,14.90
2023-01-08T03:43:28.184Z,14.13
2023-01-08T03:45:58.295Z,14.27
2023-01-08T03:48:33.713Z,14.35
2023-01-08T03:51:00.940Z,15.75
2023-01-08T03:53:40.699Z,14.88
2023-01-08T03:56:14.703Z,14.30
2023-01-08T03:58:49.099Z,13.73
2023-01-08T04:01:16.311Z,14.40
2023-01-08T04:03:43.435Z,14.00
2023-01-08T04:06:16.681Z,14.52
2023-01-08T04:08:43.887Z,14.20
2023-01-08T04:11:17.740Z,14.48
2023-01-08T04:13:44.983Z,14.05
2023-01-08T04:16:12.215Z,13.55
2023-01-08T04:18:45.681Z,14.13
2023-01-08T04:21:12.850Z,14.88
2023-01-08T04:23:46.696Z,14.68
2023-01-08T04:26:13.850Z,14.10
2023-01-08T04:28:40.948Z,13.70
2023-01-08T04:31:15.742Z,13.68
2023-01-08T04:33:42.917Z,13.95
2023-01-08T04:36:16.829Z,14.60
2023-01-08T04:38:44.017Z,14.48
2023-01-08T04:41:11.146Z,14.20
2023-01-08T04:43:44.707Z,13.25
2023-01-08T04:46:12.026Z,12.98
2023-01-08T04:48:45.693Z,13.60
2023-01-08T04:51:12.873Z,13.75
2023-01-08T04:53:52.688Z,12.55
2023-01-08T04:56:19.882Z,13.32
2023-01-08T04:58:53.726Z,13.50
2023-01-08T05:01:22.069Z,14.50
2023-01-08T05:03:53.155Z,13.07
2023-01-08T05:06:26.789Z,13.07
2023-01-08T05:08:54.042Z,13.20
2023-01-08T05:11:27.772Z,13.48
2023-01-08T05:13:54.910Z,13.20
2023-01-08T05:16:22.048Z,13.82
2023-01-08T05:18:55.754Z,12.82
2023-01-08T05:21:22.859Z,13.60
2023-01-08T05:23:56.706Z,12.57
2023-01-08T05:26:23.944Z,13.77
2023-01-08T05:28:51.147Z,13.80
2023-01-08T05:31:24.915Z,13.90
2023-01-08T05:33:52.183Z,13.05
2023-01-08T05:36:19.784Z,14.38
2023-01-08T05:41:21.004Z,13.98
2023-01-08T05:43:54.724Z,15.80
2023-01-08T05:46:22.035Z,15.98
2023-01-08T05:48:49.188Z,15.18
2023-01-08T05:51:22.675Z,16.27
2023-01-08T05:53:57.769Z,16.35
2023-01-08T05:56:31.727Z,16.42
2023-01-08T05:58:58.975Z,16.00
2023-01-08T06:01:26.185Z,15.32
2023-01-08T06:04:01.717Z,16.17
2023-01-08T06:06:29.041Z,15.88
2023-01-08T06:09:02.728Z,16.35
2023-01-08T06:11:30.008Z,15.88
2023-01-08T06:13:57.159Z,16.30
2023-01-08T06:16:30.678Z,14.23
2023-01-08T06:18:57.913Z,14.98
2023-01-08T06:21:31.733Z,15.18
2023-01-08T06:23:58.889Z,15.65
2023-01-08T06:26:26.041Z,16.15
2023-01-08T06:28:59.853Z,17.42
2023-01-08T06:31:27.224Z,15.00
2023-01-08T06:33:54.314Z,15.80
2023-01-08T06:36:28.798Z,15.48
2023-01-08T06:38:56.041Z,15.73
2023-01-08T06:41:29.781Z,14.63
2023-01-08T06:43:56.928Z,15.52
2023-01-08T06:46:24.179Z,14.77
2023-01-08T06:48:57.675Z,14.70
2023-01-08T06:51:24.883Z,13.27
2023-01-08T06:53:58.794Z,14.32
2023-01-08T06:56:37.700Z,14.60
2023-01-08T06:59:18.861Z,13.88
2023-01-08T07:01:46.012Z,13.98
2023-01-08T07:04:13.478Z,12.85
2023-01-08T07:06:46.726Z,12.85
2023-01-08T07:09:14.861Z,12.73
2023-01-08T07:11:48.742Z,12.18
2023-01-08T07:14:15.922Z,12.05
2023-01-08T07:16:43.201Z,11.65
2023-01-08T07:19:16.703Z,10.45
2023-01-08T07:21:43.797Z,9.75
2023-01-08T07:24:17.889Z,9.25
2023-01-08T07:26:44.984Z,8.73
2023-01-08T07:29:12.532Z,8.18
2023-01-08T07:34:15.195Z,7.65
2023-01-08T07:37:01.775Z,7.85
2023-01-08T07:39:28.938Z,7.13
2023-01-08T07:41:56.299Z,7.15
2023-01-08T07:44:29.798Z,6.55
2023-01-08T07:46:56.933Z,7.10
2023-01-08T07:49:30.844Z,6.85
2023-01-08T07:51:57.929Z,6.07
2023-01-08T07:54:37.835Z,5.82
2023-01-08T07:57:04.991Z,5.97
2023-01-08T07:59:32.147Z,5.57
2023-01-08T08:02:05.872Z,5.10
2023-01-08T08:04:33.395Z,5.60
2023-01-08T08:07:06.882Z,5.82
2023-01-08T08:09:33.987Z,6.03
2023-01-08T08:12:01.224Z,5.85
2023-01-08T08:14:34.785Z,6.03
2023-01-08T08:17:02.138Z,5.97
2023-01-08T08:19:35.812Z,6.20
2023-01-08T08:22:02.932Z,6.78
2023-01-08T08:24:30.056Z,6.10
2023-01-08T08:27:03.735Z,6.45
2023-01-08T08:29:30.873Z,6.82
2023-01-08T08:32:04.901Z,8.30
2023-01-08T08:34:32.037Z,8.90
2023-01-08T08:36:59.114Z,9.68
2023-01-08T08:39:32.721Z,10.82
2023-01-08T08:41:59.882Z,11.48
2023-01-08T08:44:33.801Z,12.77
2023-01-08T08:47:01.074Z,14.32
2023-01-08T08:49:28.288Z,13.85
2023-01-08T08:52:01.718Z,15.10
2023-01-08T08:54:36.918Z,15.55
2023-01-08T08:57:10.763Z,17.00
2023-01-08T08:59:37.983Z,18.25
2023-01-08T09:02:05.657Z,20.55
2023-01-08T09:04:40.795Z,20.08
2023-01-08T09:07:08.016Z,20.70
2023-01-08T09:09:41.833Z,20.77
2023-01-08T09:12:09.906Z,20.55
2023-01-08T09:14:43.775Z,23.77
2023-01-08T09:17:11.047Z,22.92
2023-01-08T09:19:38.873Z,21.85
2023-01-08T09:22:12.738Z,21.40
2023-01-08T09:24:39.906Z,21.30
2023-01-08T09:27:13.775Z,22.83
2023-01-08T09:29:40.939Z,22.17
2023-01-08T09:32:08.255Z,21.55
2023-01-08T09:34:42.876Z,24.10
2023-01-08T09:37:10.103Z,23.67
2023-01-08T09:39:48.038Z,27.00
2023-01-08T09:42:21.832Z,76.15
2023-01-08T09:44:49.538Z,37.33
2023-01-08T09:47:32.717Z,50.65
2023-01-08T09:50:03.073Z,32.70
2023-01-08T09:52:37.823Z,28.33
2023-01-08T09:55:15.314Z,26.30
2023-01-08T09:57:49.817Z,32.10
2023-01-08T10:00:18.201Z,27.80
2023-01-08T10:02:45.781Z,25.50
2023-01-08T10:05:20.749Z,25.30
2023-01-08T10:07:48.511Z,25.67
2023-01-08T10:10:33.822Z,25.85
2023-01-08T10:13:01.282Z,25.73
2023-01-08T10:15:34.753Z,25.38
2023-01-08T10:18:04.385Z,24.48
2023-01-08T10:20:38.916Z,24.38
2023-01-08T10:23:10.029Z,23.90
2023-01-08T10:25:54.757Z,25.08
2023-01-08T10:28:32.713Z,23.73
2023-01-08T10:31:00.938Z,24.95
2023-01-08T10:33:37.884Z,24.25
2023-01-08T10:36:07.236Z,22.92
2023-01-08T10:38:36.554Z,22.50
2023-01-08T10:41:14.820Z,21.95
2023-01-08T10:46:24.768Z,21.13
2023-01-08T10:48:59.696Z,21.83
2023-01-08T10:51:30.901Z,21.23
2023-01-08T10:54:15.706Z,20.95
2023-01-08T10:56:43.922Z,20.55
2023-01-08T10:59:27.869Z,21.65
2023-01-08T11:01:57.211Z,19.60
2023-01-08T11:04:42.711Z,21.00
2023-01-08T11:07:20.435Z,20.25
2023-01-08T11:09:55.731Z,20.42
2023-01-08T11:12:34.536Z,21.65
2023-01-08T11:15:08.849Z,19.80
2023-01-08T11:17:36.133Z,20.77
2023-01-08T11:20:29.716Z,20.88
2023-01-08T11:23:13.768Z,20.30
2023-01-08T11:25:41.434Z,18.50
2023-01-08T11:28:21.787Z,16.75
2023-01-08T11:30:51.738Z,16.45
2023-01-08T11:33:28.901Z,17.05
2023-01-08T11:36:12.687Z,16.90
2023-01-08T11:38:47.872Z,16.55
2023-01-08T11:41:14.953Z,16.17
2023-01-08T11:43:58.852Z,16.23
2023-01-08T11:46:43.009Z,15.85
2023-01-08T11:49:31.831Z,14.82
2023-01-08T11:55:04.776Z,13.70
2023-01-08T11:57:50.038Z,12.95
2023-01-08T12:00:42.945Z,14.15
2023-01-08T12:03:22.705Z,14.52
2023-01-08T12:06:08.832Z,14.15
2023-01-08T12:08:58.620Z,14.48
2023-01-08T12:11:36.816Z,13.85
2023-01-08T12:16:51.869Z,17.35
2023-01-08T12:19:22.019Z,15.80
2023-01-08T12:22:08.055Z,17.08
2023-01-08T12:25:00.716Z,14.73
2023-01-08T12:27:56.258Z,15.75
2023-01-08T12:30:42.763Z,14.77
2023-01-08T12:33:12.380Z,15.52
2023-01-08T12:35:47.731Z,15.00
2023-01-08T12:38:30.893Z,14.15
2023-01-08T12:41:05.753Z,14.25
2023-01-08T12:43:36.261Z,14.80
2023-01-08T12:46:03.910Z,15.75
2023-01-08T12:48:39.813Z,16.58
2023-01-08T12:51:25.463Z,17.67
2023-01-08T12:54:17.898Z,17.48
2023-01-08T12:57:03.751Z,18.88
2023-01-08T12:59:51.881Z,17.55
2023-01-08T13:02:41.888Z,19.40
2023-01-08T13:05:32.338Z,19.08
2023-01-08T13:08:07.852Z,20.48
2023-01-08T13:10:55.321Z,20.48
2023-01-08T13:13:38.751Z,21.45
2023-01-08T13:16:24.597Z,22.92
2023-01-08T13:18:59.738Z,23.50
2023-01-08T13:21:33.077Z,23.90
2023-01-08T13:24:08.909Z,23.38
2023-01-08T13:26:37.795Z,24.15
2023-01-08T13:29:31.736Z,24.60
2023-01-08T13:31:58.985Z,23.60
2023-01-08T13:34:46.722Z,25.30
2023-01-08T13:37:27.773Z,24.55
2023-01-08T13:40:16.756Z,23.95
2023-01-08T13:42:50.824Z,24.90
2023-01-08T13:45:24.802Z,23.50
2023-01-08T13:47:51.987Z,25.17
2023-01-08T13:50:27.760Z,24.40
2023-01-08T13:53:02.772Z,26.13
2023-01-08T13:55:53.755Z,25.98
2023-01-08T13:58:25.102Z,25.52
2023-01-08T14:01:00.826Z,24.77
2023-01-08T14:03:35.430Z,25.88
2023-01-08T14:06:20.865Z,25.65
2023-01-08T14:09:04.775Z,24.65
2023-01-08T14:11:51.781Z,26.23
2023-01-08T14:14:20.713Z,26.88
2023-01-08T14:16:48.477Z,25.33
2023-01-08T14:19:23.932Z,26.90
2023-01-08T14:21:55.776Z,27.48
2023-01-08T14:24:30.871Z,28.13
2023-01-08T14:26:58.952Z,26.95
2023-01-08T14:29:33.840Z,28.80
2023-01-08T14:32:01.480Z,28.17
2023-01-08T14:34:30.598Z,28.52
2023-01-08T14:37:04.839Z,27.65
2023-01-08T14:39:31.998Z,30.10
2023-01-08T14:42:27.976Z,52.22
2023-01-08T14:45:00.244Z,33.05
2023-01-08T14:47:36.912Z,29.48
2023-01-08T21:14:24.927Z,13.02
2023-01-08T21:16:52.169Z,12.95
2023-01-08T21:19:26.005Z,12.65
2023-01-08T21:21:53.175Z,12.30
2023-01-08T21:24:20.491Z,11.80
2023-01-08T21:26:53.922Z,11.27
2023-01-08T21:29:23.166Z,10.77
2023-01-08T21:31:57.050Z,12.52
2023-01-08T21:34:24.131Z,10.80
2023-01-08T21:36:58.093Z,11.40
2023-01-08T21:39:25.678Z,11.50
2023-01-08T21:45:03.952Z,10.38
2023-01-08T21:47:37.937Z,11.10
2023-01-08T21:50:11.888Z,10.70
2023-01-08T21:52:58.011Z,11.63
2023-01-08T21:55:31.888Z,10.18
2023-01-08T21:57:59.101Z,11.18
2023-01-08T22:00:27.081Z,9.88
2023-01-08T22:03:01.046Z,11.32
2023-01-08T22:05:28.255Z,10.63
2023-01-08T22:08:01.993Z,10.93
2023-01-08T22:10:29.307Z,9.55
2023-01-08T22:13:08.976Z,9.40
2023-01-08T22:15:36.239Z,9.32
2023-01-08T22:18:03.357Z,9.57
2023-01-08T22:20:37.029Z,10.27
2023-01-08T22:23:04.249Z,9.75
2023-01-08T22:25:37.996Z,9.40
2023-01-08T22:28:05.197Z,8.93
2023-01-08T22:30:32.350Z,8.57
2023-01-08T22:33:05.998Z,8.75
2023-01-08T22:35:33.088Z,8.73
2023-01-08T22:38:00.359Z,8.80
2023-01-08T22:40:33.961Z,8.32
2023-01-08T22:43:01.108Z,7.90
2023-01-08T22:45:35.209Z,8.27
2023-01-08T22:48:02.418Z,8.77
2023-01-08T22:50:29.585Z,7.80
2023-01-08T22:53:03.098Z,7.18
2023-01-08T22:55:30.342Z,7.50
2023-01-08T22:58:03.991Z,7.85
2023-01-08T23:00:31.228Z,6.82
2023-01-08T23:02:58.330Z,7.35
2023-01-08T23:05:31.946Z,7.45
2023-01-08T23:07:59.159Z,7.60
2023-01-08T23:10:32.983Z,8.07
2023-01-08T23:13:06.941Z,7.53
2023-01-08T23:15:47.120Z,8.38
2023-01-08T23:18:14.277Z,8.55
2023-01-08T23:20:41.919Z,8.55
2023-01-08T23:23:15.983Z,8.10
2023-01-08T23:25:43.151Z,7.82
2023-01-08T23:28:17.144Z,8.13
2023-01-08T23:30:44.303Z,8.25
2023-01-08T23:33:11.546Z,8.82
2023-01-08T23:35:45.039Z,8.70
2023-01-08T23:38:12.237Z,8.82
2023-01-08T23:40:42.430Z,8.30
2023-01-08T23:43:15.958Z,8.57
2023-01-08T23:45:43.268Z,7.90
2023-01-08T23:48:17.022Z,8.45
2023-01-08T23:50:44.238Z,8.73
2023-01-08T23:53:11.399Z,7.78
2023-01-08T23:55:45.060Z,7.65
2023-01-08T23:58:12.257Z,7.38
